Time;durP1;ratioP1;P1;durP2;ratioP2;P2;SDS_P1;SDS_P2;PMS_P1;PMS_P2;Temp;Humidity;BMP_temperature;BMP_pressure;BME280_temperature;BME280_humidity;BME280_pressure;Samples;Min_cycle;Max_cycle;Signal;HPM_P1;HPM_P2
2021/07/27 00:00:46;;;;;;;8.73;4.10;;;;;;;;;;5072207;28;20020;-36
2021/07/27 00:03:11;;;;;;;7.40;3.17;;;;;;;;;;5072444;28;20086;-36
2021/07/27 00:05:37;;;;;;;7.43;2.60;;;;;;;;;;5072170;28;20460;-36
2021/07/27 00:08:02;;;;;;;7.55;3.78;;;;;;;;;;5073244;28;20035;-36
2021/07/27 00:10:28;;;;;;;12.70;4.25;;;;;;;;;;5076526;28;20024;-36
2021/07/27 00:12:53;;;;;;;10.70;4.00;;;;;;;;;;5076506;28;20040;-36
2021/07/27 00:15:18;;;;;;;14.32;3.67;;;;;;;;;;5076299;28;20051;-36
2021/07/27 00:17:44;;;;;;;13.65;4.03;;;;;;;;;;5076120;28;20063;-36
2021/07/27 00:20:09;;;;;;;11.63;4.00;;;;;;;;;;5076263;28;20019;-36
2021/07/27 00:22:38;;;;;;;10.27;3.10;;;;;;;;;;5076366;28;20040;-36
2021/07/27 00:25:04;;;;;;;18.00;3.60;;;;;;;;;;5076017;28;20016;-36
2021/07/27 00:27:29;;;;;;;7.03;3.28;;;;;;;;;;5076323;28;20039;-36
2021/07/27 00:29:55;;;;;;;12.32;3.88;;;;;;;;;;5076225;28;20017;-36
2021/07/27 00:32:20;;;;;;;5.90;2.80;;;;;;;;;;5076160;28;20040;-36
2021/07/27 00:34:45;;;;;;;8.65;2.45;;;;;;;;;;5076143;28;20044;-36
2021/07/27 00:37:18;;;;;;;13.73;2.72;;;;;;;;;;5075916;28;20032;-36
2021/07/27 00:39:44;;;;;;;12.85;3.47;;;;;;;;;;5075672;28;20028;-35
2021/07/27 00:42:10;;;;;;;8.75;4.15;;;;;;;;;;5076150;28;20077;-35
2021/07/27 00:44:36;;;;;;;5.90;2.85;;;;;;;;;;5076141;28;20056;-35
2021/07/27 00:47:01;;;;;;;14.15;4.00;;;;;;;;;;5075639;28;20462;-35
2021/07/27 00:49:26;;;;;;;7.47;3.00;;;;;;;;;;5075930;28;20029;-35
2021/07/27 00:51:52;;;;;;;12.10;3.75;;;;;;;;;;5075382;28;20503;-36
2021/07/27 00:54:17;;;;;;;11.30;3.72;;;;;;;;;;5075545;28;20055;-35
2021/07/27 00:56:43;;;;;;;16.58;4.43;;;;;;;;;;5075739;28;20029;-35
2021/07/27 00:59:08;;;;;;;9.90;3.47;;;;;;;;;;5075454;28;20031;-35
2021/07/27 01:01:35;;;;;;;8.80;4.38;;;;;;;;;;5075300;28;20024;-36
2021/07/27 01:04:00;;;;;;;8.10;4.70;;;;;;;;;;5075541;28;20024;-35
2021/07/27 01:06:25;;;;;;;13.98;3.42;;;;;;;;;;5090978;28;20090;-35
2021/07/27 01:08:52;;;;;;;10.63;3.63;;;;;;;;;;5073878;28;20616;-36
2021/07/27 01:11:24;;;;;;;9.68;3.85;;;;;;;;;;5075316;28;20382;-35
2021/07/27 01:13:49;;;;;;;10.25;3.47;;;;;;;;;;5075170;28;20474;-35
2021/07/27 01:16:15;;;;;;;10.48;3.55;;;;;;;;;;5075022;28;20024;-35
2021/07/27 01:18:51;;;;;;;11.13;2.88;;;;;;;;;;5075383;28;20032;-35
2021/07/27 01:40:07;;;;;;;10.18;3.67;;;;;;;;;;5075012;28;20060;-36
2021/07/27 01:42:39;;;;;;;13.40;3.30;;;;;;;;;;5074943;28;20048;-36
2021/07/27 01:45:11;;;;;;;7.80;3.67;;;;;;;;;;5074701;28;20077;-36
2021/07/27 01:47:36;;;;;;;10.80;2.95;;;;;;;;;;5074891;28;20071;-36
2021/07/27 01:50:01;;;;;;;7.25;3.55;;;;;;;;;;5074696;28;20459;-35
2021/07/27 01:52:27;;;;;;;9.25;3.33;;;;;;;;;;5074219;28;20468;-36
2021/07/27 01:54:55;;;;;;;7.50;3.20;;;;;;;;;;5074384;28;20036;-36
2021/07/27 01:57:20;;;;;;;6.78;3.25;;;;;;;;;;5074662;28;20113;-36
2021/07/27 01:59:49;;;;;;;11.52;3.67;;;;;;;;;;5074359;28;20462;-36
2021/07/27 02:02:14;;;;;;;9.30;3.95;;;;;;;;;;5072928;28;20112;-36
2021/07/27 02:04:40;;;;;;;7.78;3.40;;;;;;;;;;5074501;28;20485;-36
2021/07/27 02:07:05;;;;;;;9.07;3.53;;;;;;;;;;5074436;28;20634;-36
2021/07/27 02:09:37;;;;;;;13.13;3.53;;;;;;;;;;5074465;28;20410;-36
2021/07/27 02:12:03;;;;;;;8.05;2.97;;;;;;;;;;5074354;28;20036;-36
2021/07/27 02:15:03;;;;;;;9.07;3.20;;;;;;;;;;5074284;28;20560;-36
2021/07/27 02:17:14;;;;;;;9.35;3.50;;;;;;;;;;5073904;28;20059;-35
2021/07/27 02:19:39;;;;;;;5.13;3.42;;;;;;;;;;5074156;28;20103;-36
2021/07/27 02:22:05;;;;;;;6.40;2.85;;;;;;;;;;5073934;28;20025;-37
2021/07/27 02:24:30;;;;;;;7.72;3.55;;;;;;;;;;5074085;28;20055;-36
2021/07/27 02:26:55;;;;;;;6.53;2.85;;;;;;;;;;5074090;28;20059;-36
2021/07/27 02:29:21;;;;;;;5.72;3.42;;;;;;;;;;5089421;28;20142;-36
2021/07/27 02:31:46;;;;;;;13.55;4.00;;;;;;;;;;5088873;28;20086;-36
2021/07/27 02:34:11;;;;;;;6.95;2.80;;;;;;;;;;5073666;28;20012;-36
2021/07/27 02:36:37;;;;;;;7.68;3.88;;;;;;;;;;5073615;28;20024;-36
2021/07/27 02:39:04;;;;;;;4.55;3.25;;;;;;;;;;5073566;28;20348;-35
2021/07/27 02:41:30;;;;;;;8.43;3.53;;;;;;;;;;5073734;28;20025;-36
2021/07/27 02:43:55;;;;;;;9.52;3.28;;;;;;;;;;5073414;28;20016;-36
2021/07/27 02:46:21;;;;;;;7.18;3.70;;;;;;;;;;5072195;28;20070;-36
2021/07/27 02:48:46;;;;;;;19.08;4.47;;;;;;;;;;5073230;28;20023;-36
2021/07/27 02:51:12;;;;;;;7.38;3.22;;;;;;;;;;5073269;28;20112;-36
2021/07/27 02:53:37;;;;;;;18.63;4.28;;;;;;;;;;5071833;28;20094;-36
2021/07/27 02:56:02;;;;;;;10.30;3.28;;;;;;;;;;5073074;28;20111;-36
2021/07/27 02:58:28;;;;;;;6.65;3.35;;;;;;;;;;5073512;28;20033;-37
2021/07/27 03:00:54;;;;;;;12.45;3.65;;;;;;;;;;5073044;28;20429;-36
2021/07/27 03:03:19;;;;;;;12.00;3.38;;;;;;;;;;5073332;28;20012;-36
2021/07/27 03:05:44;;;;;;;9.63;3.50;;;;;;;;;;5073050;28;20032;-36
2021/07/27 03:08:19;;;;;;;8.45;3.35;;;;;;;;;;5073259;28;20051;-36
2021/07/27 03:10:44;;;;;;;7.93;2.90;;;;;;;;;;5072893;28;20028;-36
2021/07/27 03:13:09;;;;;;;8.15;3.25;;;;;;;;;;5072847;28;20073;-36
2021/07/27 03:15:35;;;;;;;5.80;3.22;;;;;;;;;;5072926;28;20028;-36
2021/07/27 03:18:00;;;;;;;9.00;3.63;;;;;;;;;;5072765;28;20099;-36
2021/07/27 03:20:31;;;;;;;14.73;4.07;;;;;;;;;;5072707;28;20391;-37
2021/07/27 03:22:56;;;;;;;6.95;3.33;;;;;;;;;;5072648;28;20029;-36
2021/07/27 03:25:22;;;;;;;5.93;3.53;;;;;;;;;;5072947;28;20024;-36
2021/07/27 03:27:49;;;;;;;14.45;4.78;;;;;;;;;;5072943;28;20013;-36
2021/07/27 03:30:15;;;;;;;7.25;3.33;;;;;;;;;;5072837;28;20107;-36
2021/07/27 03:32:40;;;;;;;10.50;4.10;;;;;;;;;;5072467;28;20033;-36
2021/07/27 03:35:06;;;;;;;11.80;3.55;;;;;;;;;;5072666;28;20028;-36
2021/07/27 03:37:32;;;;;;;6.75;2.97;;;;;;;;;;5088255;28;20017;-36
2021/07/27 03:39:58;;;;;;;8.00;3.13;;;;;;;;;;5072457;28;20036;-36
2021/07/27 03:42:26;;;;;;;8.43;4.00;;;;;;;;;;5072254;28;20048;-36
2021/07/27 03:44:55;;;;;;;7.65;3.78;;;;;;;;;;5072351;28;20025;-36
2021/07/27 03:47:21;;;;;;;6.05;3.00;;;;;;;;;;5072508;28;20057;-35
2021/07/27 03:49:46;;;;;;;11.38;3.40;;;;;;;;;;5072178;28;20455;-36
2021/07/27 03:52:11;;;;;;;8.00;3.58;;;;;;;;;;5072051;28;20086;-35
2021/07/27 03:54:37;;;;;;;7.07;3.58;;;;;;;;;;5072753;28;20054;-36
2021/07/27 03:57:03;;;;;;;10.68;2.83;;;;;;;;;;5072163;28;20388;-36
2021/07/27 03:59:32;;;;;;;7.03;3.67;;;;;;;;;;5072302;28;20056;-36
2021/07/27 04:01:58;;;;;;;10.73;3.65;;;;;;;;;;5072160;28;20044;-36
2021/07/27 04:04:23;;;;;;;11.73;4.07;;;;;;;;;;5072365;28;20066;-35
2021/07/27 04:06:49;;;;;;;12.60;4.25;;;;;;;;;;5072138;28;20044;-35
2021/07/27 04:09:14;;;;;;;10.35;3.53;;;;;;;;;;5072060;28;20020;-37
2021/07/27 04:11:40;;;;;;;9.18;4.68;;;;;;;;;;5072417;28;20037;-36
2021/07/27 04:14:05;;;;;;;7.60;3.22;;;;;;;;;;5072372;28;20055;-35
2021/07/27 04:16:31;;;;;;;9.20;3.40;;;;;;;;;;5072202;28;20056;-35
2021/07/27 04:18:57;;;;;;;4.45;3.08;;;;;;;;;;5072104;28;20025;-35
2021/07/27 04:21:22;;;;;;;5.50;3.03;;;;;;;;;;5071971;28;20370;-35
2021/07/27 04:23:48;;;;;;;12.45;4.50;;;;;;;;;;5072013;28;20033;-36
2021/07/27 04:26:13;;;;;;;7.13;2.90;;;;;;;;;;5072367;28;20017;-36
2021/07/27 04:28:39;;;;;;;9.38;3.10;;;;;;;;;;5071995;28;20078;-36
2021/07/27 04:31:04;;;;;;;11.63;3.05;;;;;;;;;;5071870;28;20017;-36
2021/07/27 04:33:29;;;;;;;9.48;3.45;;;;;;;;;;5072226;28;20043;-35
2021/07/27 04:35:55;;;;;;;8.90;2.92;;;;;;;;;;5071955;28;20444;-35
2021/07/27 04:38:21;;;;;;;6.47;3.50;;;;;;;;;;5071970;28;20036;-35
2021/07/27 04:40:46;;;;;;;8.48;4.03;;;;;;;;;;5071641;28;20521;-36
2021/07/27 04:43:13;;;;;;;8.38;3.28;;;;;;;;;;5071937;28;20033;-36
2021/07/27 04:45:38;;;;;;;5.90;2.67;;;;;;;;;;5071966;28;20016;-36
2021/07/27 04:48:04;;;;;;;6.60;3.63;;;;;;;;;;5071732;28;20025;-36
2021/07/27 04:50:29;;;;;;;8.75;3.42;;;;;;;;;;5072067;28;20012;-36
2021/07/27 04:53:01;;;;;;;10.30;3.17;;;;;;;;;;5071326;28;20414;-36
2021/07/27 04:55:27;;;;;;;8.30;3.20;;;;;;;;;;5074942;28;20024;-36
2021/07/27 04:57:52;;;;;;;7.25;3.17;;;;;;;;;;5075374;28;20272;-35
2021/07/27 05:00:24;;;;;;;9.57;3.60;;;;;;;;;;5075713;28;20029;-36
2021/07/27 05:02:50;;;;;;;8.77;3.13;;;;;;;;;;5075320;28;20040;-36
2021/07/27 05:05:15;;;;;;;4.57;2.90;;;;;;;;;;5075617;28;20027;-35
2021/07/27 05:07:49;;;;;;;14.20;3.78;;;;;;;;;;5075662;28;20036;-36
2021/07/27 05:10:18;;;;;;;5.18;2.95;;;;;;;;;;5075431;28;20453;-35
2021/07/27 05:12:44;;;;;;;5.70;2.95;;;;;;;;;;5075423;28;20040;-36
2021/07/27 05:15:11;;;;;;;9.32;3.17;;;;;;;;;;5075231;28;20372;-35
2021/07/27 05:17:37;;;;;;;8.45;3.53;;;;;;;;;;5075312;28;20379;-36
2021/07/27 05:20:03;;;;;;;9.18;3.20;;;;;;;;;;5075368;28;20097;-36
2021/07/27 05:22:28;;;;;;;14.13;2.85;;;;;;;;;;5075121;28;20467;-36
2021/07/27 05:24:54;;;;;;;10.05;3.72;;;;;;;;;;5074926;28;20439;-36
2021/07/27 05:27:19;;;;;;;12.93;4.35;;;;;;;;;;5075005;28;20020;-35
2021/07/27 05:29:48;;;;;;;5.95;3.22;;;;;;;;;;5073492;28;20024;-36
2021/07/27 05:32:14;;;;;;;15.20;3.92;;;;;;;;;;5075064;28;20036;-35
2021/07/27 05:34:39;;;;;;;5.15;2.65;;;;;;;;;;5073552;28;20047;-36
2021/07/27 05:37:04;;;;;;;10.48;3.35;;;;;;;;;;5073519;28;20623;-36
2021/07/27 05:39:30;;;;;;;8.98;3.38;;;;;;;;;;5074982;28;20027;-36
2021/07/27 05:41:56;;;;;;;8.00;3.25;;;;;;;;;;5074675;28;20483;-35
2021/07/27 05:44:25;;;;;;;8.10;3.63;;;;;;;;;;5074979;28;20032;-35
2021/07/27 05:46:51;;;;;;;5.75;2.95;;;;;;;;;;5074399;28;20032;-35
2021/07/27 05:49:16;;;;;;;8.82;3.60;;;;;;;;;;5074579;28;20032;-35
2021/07/27 05:51:41;;;;;;;14.85;3.65;;;;;;;;;;5074507;28;20016;-35
2021/07/27 05:54:07;;;;;;;8.18;2.95;;;;;;;;;;5074667;28;20066;-35
2021/07/27 05:56:33;;;;;;;5.57;2.72;;;;;;;;;;5074459;28;20033;-36
2021/07/27 05:58:58;;;;;;;7.18;3.47;;;;;;;;;;5074180;28;20059;-35
2021/07/27 06:01:23;;;;;;;5.68;2.95;;;;;;;;;;5074346;28;20016;-35
2021/07/27 06:03:49;;;;;;;10.80;2.85;;;;;;;;;;5074289;28;20055;-35
2021/07/27 06:06:14;;;;;;;8.52;3.28;;;;;;;;;;5073883;28;20344;-35
2021/07/27 06:08:39;;;;;;;10.77;3.35;;;;;;;;;;5074192;28;20551;-36
2021/07/27 06:11:06;;;;;;;6.18;3.13;;;;;;;;;;5074068;28;20020;-36
2021/07/27 06:13:32;;;;;;;8.10;4.30;;;;;;;;;;5074049;28;20055;-35
2021/07/27 06:16:04;;;;;;;7.05;3.60;;;;;;;;;;5074323;28;20478;-35
2021/07/27 06:18:30;;;;;;;8.38;3.80;;;;;;;;;;5074021;28;20545;-36
2021/07/27 06:20:55;;;;;;;4.35;2.90;;;;;;;;;;5073864;28;20059;-35
2021/07/27 06:23:20;;;;;;;10.93;3.22;;;;;;;;;;5073790;28;20111;-35
2021/07/27 06:25:46;;;;;;;11.15;3.25;;;;;;;;;;5073817;28;20052;-36
2021/07/27 06:28:11;;;;;;;8.10;3.75;;;;;;;;;;5073885;28;20074;-36
2021/07/27 06:30:37;;;;;;;6.85;2.97;;;;;;;;;;5073984;28;20048;-36
2021/07/27 06:33:02;;;;;;;11.77;3.53;;;;;;;;;;5073613;28;20040;-35
2021/07/27 06:35:27;;;;;;;6.72;3.42;;;;;;;;;;5072402;28;20012;-35
2021/07/27 06:37:54;;;;;;;8.18;2.97;;;;;;;;;;5073808;28;20036;-35
2021/07/27 06:40:20;;;;;;;14.73;3.38;;;;;;;;;;5073871;28;20020;-35
2021/07/27 06:42:45;;;;;;;5.80;2.83;;;;;;;;;;5073620;28;20028;-36
2021/07/27 06:45:15;;;;;;;9.57;3.00;;;;;;;;;;5072164;28;20020;-35
2021/07/27 06:47:40;;;;;;;10.88;2.67;;;;;;;;;;5073717;28;20090;-35
2021/07/27 06:50:06;;;;;;;11.20;3.63;;;;;;;;;;5073455;28;20515;-36
2021/07/27 06:52:32;;;;;;;11.32;3.70;;;;;;;;;;5073173;28;20446;-36
2021/07/27 06:54:57;;;;;;;7.68;3.83;;;;;;;;;;5073208;28;20021;-36
2021/07/27 06:57:22;;;;;;;7.53;3.28;;;;;;;;;;5073292;28;20032;-37
2021/07/27 06:59:48;;;;;;;14.30;4.05;;;;;;;;;;5073385;28;20070;-35
2021/07/27 07:02:14;;;;;;;5.13;2.63;;;;;;;;;;5073155;28;20122;-35
2021/07/27 07:04:39;;;;;;;7.50;3.03;;;;;;;;;;5073095;28;20017;-36
2021/07/27 07:07:08;;;;;;;5.85;3.30;;;;;;;;;;5072917;28;20024;-36
2021/07/27 07:09:33;;;;;;;12.48;3.22;;;;;;;;;;5073264;28;20032;-35
2021/07/27 07:11:59;;;;;;;7.68;2.85;;;;;;;;;;5072836;28;20402;-36
2021/07/27 07:14:24;;;;;;;9.77;3.15;;;;;;;;;;5072935;28;20023;-35
2021/07/27 07:16:50;;;;;;;5.18;3.13;;;;;;;;;;5073123;28;20039;-35
2021/07/27 07:19:15;;;;;;;11.80;3.55;;;;;;;;;;5071906;28;20027;-36
2021/07/27 07:21:40;;;;;;;5.93;3.20;;;;;;;;;;5072855;28;20040;-36
2021/07/27 07:24:06;;;;;;;4.05;2.90;;;;;;;;;;5072766;28;20055;-36
2021/07/27 07:26:31;;;;;;;5.45;2.70;;;;;;;;;;5072907;28;20037;-36
2021/07/27 07:28:57;;;;;;;8.73;3.17;;;;;;;;;;5072643;28;20009;-36
2021/07/27 07:31:22;;;;;;;11.13;3.03;;;;;;;;;;5072537;28;20070;-37
2021/07/27 07:33:47;;;;;;;5.72;3.15;;;;;;;;;;5072528;28;20078;-36
2021/07/27 07:36:14;;;;;;;6.47;2.83;;;;;;;;;;5072710;28;20047;-36
2021/07/27 07:38:39;;;;;;;6.85;2.60;;;;;;;;;;5071285;28;20494;-35
2021/07/27 07:41:06;;;;;;;12.82;4.18;;;;;;;;;;5072156;28;20024;-35
2021/07/27 07:43:31;;;;;;;8.35;3.38;;;;;;;;;;5072832;28;20028;-35
2021/07/27 07:45:57;;;;;;;6.72;2.80;;;;;;;;;;5072366;28;20051;-36
2021/07/27 07:48:22;;;;;;;9.57;3.97;;;;;;;;;;5072548;28;20020;-34
2021/07/27 07:50:47;;;;;;;4.95;2.75;;;;;;;;;;5072488;28;20031;-36
2021/07/27 07:53:13;;;;;;;6.80;2.88;;;;;;;;;;5072280;28;20059;-35
2021/07/27 07:55:38;;;;;;;6.22;3.30;;;;;;;;;;5072723;28;20521;-35
2021/07/27 07:58:03;;;;;;;9.98;3.75;;;;;;;;;;5072003;28;20021;-35
2021/07/27 08:00:29;;;;;;;5.32;3.13;;;;;;;;;;5072554;28;20327;-35
2021/07/27 08:02:54;;;;;;;10.80;4.38;;;;;;;;;;5072313;28;20024;-35
2021/07/27 08:05:20;;;;;;;7.55;3.35;;;;;;;;;;5072211;28;20056;-35
2021/07/27 08:07:46;;;;;;;10.70;3.95;;;;;;;;;;5072216;28;20096;-35
2021/07/27 08:10:12;;;;;;;5.63;3.28;;;;;;;;;;5072449;28;20033;-36
2021/07/27 08:12:37;;;;;;;5.20;3.28;;;;;;;;;;5072189;28;20032;-36
2021/07/27 08:15:02;;;;;;;5.90;3.08;;;;;;;;;;5072107;28;20078;-36
2021/07/27 08:17:28;;;;;;;9.68;3.75;;;;;;;;;;5070942;28;20095;-35
2021/07/27 08:19:53;;;;;;;12.25;3.30;;;;;;;;;;5072335;28;20037;-35
2021/07/27 08:22:19;;;;;;;12.40;3.85;;;;;;;;;;5072307;28;20059;-35
2021/07/27 08:24:44;;;;;;;6.65;2.83;;;;;;;;;;5072438;28;20441;-36
2021/07/27 08:27:09;;;;;;;6.45;2.97;;;;;;;;;;5072130;28;20020;-36
2021/07/27 08:29:39;;;;;;;11.07;3.40;;;;;;;;;;5073512;28;20028;-35
2021/07/27 08:32:05;;;;;;;7.22;3.42;;;;;;;;;;5075991;28;20028;-35
2021/07/27 08:34:37;;;;;;;9.90;3.25;;;;;;;;;;5076066;28;20657;-35
2021/07/27 08:37:03;;;;;;;8.00;3.83;;;;;;;;;;5075925;28;20035;-35
2021/07/27 08:39:28;;;;;;;8.40;3.53;;;;;;;;;;5075828;28;20024;-34
2021/07/27 08:41:54;;;;;;;12.07;4.25;;;;;;;;;;5074557;28;20150;-35
2021/07/27 08:44:20;;;;;;;5.32;2.72;;;;;;;;;;5075873;28;20043;-35
2021/07/27 08:46:46;;;;;;;3.85;2.47;;;;;;;;;;5091254;28;20067;-35
2021/07/27 08:49:13;;;;;;;9.05;3.13;;;;;;;;;;5075781;28;20074;-35
2021/07/27 08:51:39;;;;;;;10.40;2.78;;;;;;;;;;5075379;28;20113;-37
2021/07/27 08:54:07;;;;;;;5.60;2.80;;;;;;;;;;5075572;28;20064;-35
2021/07/27 08:56:32;;;;;;;7.28;3.08;;;;;;;;;;5075633;28;20035;-35
2021/07/27 08:58:58;;;;;;;6.95;2.95;;;;;;;;;;5075350;28;20099;-35
2021/07/27 09:01:26;;;;;;;8.38;3.25;;;;;;;;;;5074529;28;20103;-35
2021/07/27 09:03:52;;;;;;;10.73;3.45;;;;;;;;;;5075331;28;20050;-35
2021/07/27 09:06:21;;;;;;;10.80;3.38;;;;;;;;;;5090916;28;20032;-35
2021/07/27 09:08:47;;;;;;;9.95;3.08;;;;;;;;;;5075563;28;20048;-35
2021/07/27 09:11:12;;;;;;;6.20;3.53;;;;;;;;;;5075186;28;20075;-35
2021/07/27 09:13:38;;;;;;;6.13;3.40;;;;;;;;;;5075319;28;20020;-35
2021/07/27 09:16:03;;;;;;;7.63;3.58;;;;;;;;;;5075152;28;20029;-35
2021/07/27 09:18:33;;;;;;;12.57;3.28;;;;;;;;;;5075393;28;20356;-35
2021/07/27 09:21:00;;;;;;;11.80;3.85;;;;;;;;;;5075032;28;20472;-35
2021/07/27 09:23:29;;;;;;;12.95;3.95;;;;;;;;;;5075060;28;20446;-35
2021/07/27 09:25:56;;;;;;;7.32;3.45;;;;;;;;;;5075197;28;20103;-35
2021/07/27 09:28:22;;;;;;;11.95;4.13;;;;;;;;;;5075207;28;20016;-35
2021/07/27 09:30:48;;;;;;;10.77;4.07;;;;;;;;;;5074725;28;20036;-34
2021/07/27 09:33:15;;;;;;;11.63;4.28;;;;;;;;;;5074848;28;20028;-36
2021/07/27 09:35:41;;;;;;;10.40;3.42;;;;;;;;;;5074764;28;20071;-35
2021/07/27 09:38:15;;;;;;;10.40;2.95;;;;;;;;;;5074797;28;20048;-35
2021/07/27 09:40:48;;;;;;;8.57;3.05;;;;;;;;;;5073903;28;20036;-35
2021/07/27 09:43:17;;;;;;;7.43;2.97;;;;;;;;;;5074679;28;20364;-35
2021/07/27 09:45:49;;;;;;;15.50;3.72;;;;;;;;;;5074960;28;20056;-35
2021/07/27 09:48:16;;;;;;;11.32;2.83;;;;;;;;;;5074926;28;20021;-34
2021/07/27 09:50:42;;;;;;;5.55;3.15;;;;;;;;;;5074564;28;20071;-35
2021/07/27 09:53:07;;;;;;;10.75;3.53;;;;;;;;;;5074186;28;20505;-35
2021/07/27 09:55:33;;;;;;;10.70;3.53;;;;;;;;;;5074433;28;20024;-35
2021/07/27 09:58:01;;;;;;;11.60;3.58;;;;;;;;;;5074407;28;20033;-35
2021/07/27 10:00:27;;;;;;;8.57;3.55;;;;;;;;;;5074444;28;20017;-35
2021/07/27 10:02:52;;;;;;;12.77;3.72;;;;;;;;;;5074245;28;20042;-35
2021/07/27 10:05:26;;;;;;;7.30;3.20;;;;;;;;;;5074296;28;20055;-34
2021/07/27 10:07:55;;;;;;;8.07;3.55;;;;;;;;;;5074563;28;20028;-35
2021/07/27 10:10:32;;;;;;;12.45;3.65;;;;;;;;;;5074054;28;20479;-35
2021/07/27 10:13:03;;;;;;;6.60;3.75;;;;;;;;;;5074380;28;20044;-35
2021/07/27 10:15:37;;;;;;;5.53;3.38;;;;;;;;;;5074271;28;20032;-34
2021/07/27 10:18:02;;;;;;;7.55;3.13;;;;;;;;;;5074296;28;20036;-34
2021/07/27 10:20:28;;;;;;;9.38;3.35;;;;;;;;;;5073863;28;20017;-35
2021/07/27 10:22:54;;;;;;;7.78;3.90;;;;;;;;;;5073848;28;20028;-35
2021/07/27 10:25:20;;;;;;;7.30;3.35;;;;;;;;;;5074244;28;20055;-35
2021/07/27 10:27:55;;;;;;;13.00;4.13;;;;;;;;;;5073790;28;20074;-35
2021/07/27 10:30:33;;;;;;;10.85;3.60;;;;;;;;;;5073706;28;20044;-35
2021/07/27 10:32:59;;;;;;;10.80;4.22;;;;;;;;;;5073929;28;20032;-36
2021/07/27 10:35:26;;;;;;;8.75;4.25;;;;;;;;;;5073794;28;20020;-34
2021/07/27 10:37:52;;;;;;;9.95;3.83;;;;;;;;;;5073541;28;20513;-35
2021/07/27 10:40:38;;;;;;;14.82;3.80;;;;;;;;;;5072651;28;20103;-35
2021/07/27 10:43:07;;;;;;;6.18;3.78;;;;;;;;;;5065942;28;20044;-35
2021/07/27 10:45:35;;;;;;;15.15;4.07;;;;;;;;;;5073732;28;20040;-35
2021/07/27 10:48:04;;;;;;;6.95;3.72;;;;;;;;;;5073366;28;20039;-35
2021/07/27 10:50:30;;;;;;;12.82;4.95;;;;;;;;;;5073482;28;20056;-36
2021/07/27 10:53:04;;;;;;;10.02;4.50;;;;;;;;;;5072895;28;20464;-35
2021/07/27 10:55:31;;;;;;;8.57;4.32;;;;;;;;;;5072155;28;20543;-34
2021/07/27 10:57:58;;;;;;;11.68;4.15;;;;;;;;;;5073015;28;20020;-35
2021/07/27 11:00:33;;;;;;;8.30;4.18;;;;;;;;;;5073464;28;20468;-35
2021/07/27 11:02:59;;;;;;;9.90;3.95;;;;;;;;;;5073036;28;20395;-35
2021/07/27 11:05:28;;;;;;;8.25;3.40;;;;;;;;;;5073074;28;20023;-35
2021/07/27 11:07:53;;;;;;;7.65;3.95;;;;;;;;;;5072961;28;20032;-35
2021/07/27 11:10:19;;;;;;;7.03;3.60;;;;;;;;;;5072975;28;20012;-35
2021/07/27 11:12:45;;;;;;;16.75;4.28;;;;;;;;;;5072848;28;20047;-35
2021/07/27 11:15:23;;;;;;;10.15;4.03;;;;;;;;;;5073171;28;20103;-35
2021/07/27 11:17:48;;;;;;;6.68;3.17;;;;;;;;;;5072789;28;20032;-35
2021/07/27 11:20:15;;;;;;;4.70;3.58;;;;;;;;;;5073058;28;20017;-35
2021/07/27 11:22:42;;;;;;;10.23;4.53;;;;;;;;;;5073063;28;20028;-35
2021/07/27 11:25:08;;;;;;;10.38;3.67;;;;;;;;;;5072824;28;20027;-35
2021/07/27 11:27:33;;;;;;;8.68;4.28;;;;;;;;;;5072854;28;20457;-36
2021/07/27 11:30:00;;;;;;;5.53;3.53;;;;;;;;;;5072676;28;20481;-35
2021/07/27 11:32:38;;;;;;;8.07;4.13;;;;;;;;;;5072596;28;20477;-36
2021/07/27 11:35:03;;;;;;;12.45;4.68;;;;;;;;;;5072531;28;20032;-35
2021/07/27 11:37:28;;;;;;;10.10;4.00;;;;;;;;;;5072636;28;20023;-35
2021/07/27 11:39:55;;;;;;;8.00;3.47;;;;;;;;;;5087901;28;20043;-35
2021/07/27 11:42:27;;;;;;;12.27;3.83;;;;;;;;;;5072481;28;20417;-35
2021/07/27 11:44:53;;;;;;;4.28;2.38;;;;;;;;;;5072700;28;20090;-35
2021/07/27 11:47:18;;;;;;;11.60;3.38;;;;;;;;;;5072577;28;20024;-35
2021/07/27 11:49:53;;;;;;;8.95;2.30;;;;;;;;;;5072698;28;20044;-35
2021/07/27 11:52:24;;;;;;;8.15;2.92;;;;;;;;;;5072220;28;20059;-36
2021/07/27 11:54:58;;;;;;;9.45;2.78;;;;;;;;;;5072650;28;20055;-35
2021/07/27 11:57:23;;;;;;;10.20;3.00;;;;;;;;;;5072396;28;20185;-35
2021/07/27 11:59:50;;;;;;;3.50;2.42;;;;;;;;;;5072300;28;20487;-35
2021/07/27 12:02:15;;;;;;;5.90;3.22;;;;;;;;;;5072260;28;20024;-35
2021/07/27 12:04:41;;;;;;;8.27;2.97;;;;;;;;;;5071998;28;20095;-35
2021/07/27 12:07:06;;;;;;;12.18;3.00;;;;;;;;;;5071976;28;20406;-35
2021/07/27 12:09:32;;;;;;;4.90;2.75;;;;;;;;;;5072366;28;20025;-36
2021/07/27 12:11:57;;;;;;;10.60;2.88;;;;;;;;;;5071924;28;20119;-37
2021/07/27 12:14:22;;;;;;;5.00;2.42;;;;;;;;;;5072037;28;20108;-36
2021/07/27 12:16:48;;;;;;;6.45;2.50;;;;;;;;;;5072046;28;20040;-36
2021/07/27 12:19:14;;;;;;;7.60;2.97;;;;;;;;;;5072079;28;20059;-36
2021/07/27 12:21:39;;;;;;;6.18;2.80;;;;;;;;;;5072069;28;20056;-35
2021/07/27 12:24:06;;;;;;;8.40;2.42;;;;;;;;;;5072079;28;20020;-35
2021/07/27 12:26:34;;;;;;;8.40;2.10;;;;;;;;;;5072243;28;20048;-37
2021/07/27 12:29:00;;;;;;;9.73;2.67;;;;;;;;;;5071804;28;20075;-37
2021/07/27 12:31:25;;;;;;;6.70;2.25;;;;;;;;;;5071951;28;20475;-38
2021/07/27 12:33:52;;;;;;;10.32;2.13;;;;;;;;;;5072172;28;20025;-40
2021/07/27 12:36:17;;;;;;;7.55;2.75;;;;;;;;;;5072171;28;20028;-39
2021/07/27 12:38:42;;;;;;;11.32;2.90;;;;;;;;;;5072083;28;20452;-41
2021/07/27 12:41:08;;;;;;;4.72;1.92;;;;;;;;;;5071738;28;20036;-40
2021/07/27 12:43:33;;;;;;;9.75;2.55;;;;;;;;;;5072189;28;20040;-40
2021/07/27 12:45:59;;;;;;;7.10;2.65;;;;;;;;;;5071960;28;20032;-41
2021/07/27 12:48:25;;;;;;;8.35;2.78;;;;;;;;;;5071781;28;20031;-40
2021/07/27 12:50:50;;;;;;;20.17;3.17;;;;;;;;;;5071682;28;20123;-40
2021/07/27 12:53:16;;;;;;;12.85;2.95;;;;;;;;;;5071608;28;20052;-41
2021/07/27 12:55:41;;;;;;;8.02;2.92;;;;;;;;;;5072142;28;20360;-40
2021/07/27 12:58:07;;;;;;;7.78;2.78;;;;;;;;;;5071679;28;20440;-40
2021/07/27 13:00:33;;;;;;;7.75;2.28;;;;;;;;;;5087283;28;20035;-41
2021/07/27 13:02:58;;;;;;;4.80;2.65;;;;;;;;;;5071690;28;20479;-40
2021/07/27 13:05:24;;;;;;;9.43;2.65;;;;;;;;;;5071680;28;20074;-40
2021/07/27 13:07:50;;;;;;;12.15;3.60;;;;;;;;;;5071583;28;20074;-41
2021/07/27 13:10:16;;;;;;;5.43;2.42;;;;;;;;;;5071550;28;20111;-40
2021/07/27 13:12:41;;;;;;;10.63;2.90;;;;;;;;;;5071599;28;20422;-40
2021/07/27 13:15:07;;;;;;;11.32;3.58;;;;;;;;;;5071783;28;20025;-41
2021/07/27 13:17:32;;;;;;;13.13;2.10;;;;;;;;;;5074388;28;20374;-41
2021/07/27 13:19:58;;;;;;;7.90;2.05;;;;;;;;;;5075136;28;20028;-40
2021/07/27 13:22:24;;;;;;;10.18;3.10;;;;;;;;;;5074914;28;20099;-40
2021/07/27 13:24:49;;;;;;;7.57;2.97;;;;;;;;;;5075310;28;20089;-40
2021/07/27 13:27:15;;;;;;;13.68;2.63;;;;;;;;;;5074121;28;20042;-39
2021/07/27 13:29:40;;;;;;;12.52;2.40;;;;;;;;;;5075106;28;20475;-40
2021/07/27 13:32:06;;;;;;;5.25;2.50;;;;;;;;;;5075129;28;20531;-40
2021/07/27 13:34:32;;;;;;;9.05;2.97;;;;;;;;;;5074836;28;20031;-40
2021/07/27 13:36:57;;;;;;;8.82;2.13;;;;;;;;;;5074657;28;20028;-41
2021/07/27 13:39:25;;;;;;;10.93;2.28;;;;;;;;;;5075053;28;20032;-41
2021/07/27 13:41:51;;;;;;;8.85;2.55;;;;;;;;;;5074928;28;20016;-41
2021/07/27 13:44:16;;;;;;;6.07;2.60;;;;;;;;;;5075009;28;20035;-40
2021/07/27 13:46:41;;;;;;;8.43;2.75;;;;;;;;;;5074789;28;20451;-40
2021/07/27 13:49:07;;;;;;;7.97;2.35;;;;;;;;;;5073216;28;20032;-40
2021/07/27 13:51:32;;;;;;;18.52;2.53;;;;;;;;;;5074601;28;20021;-40
2021/07/27 13:53:59;;;;;;;5.47;2.50;;;;;;;;;;5074286;28;20097;-40
2021/07/27 13:56:24;;;;;;;13.63;3.90;;;;;;;;;;5074796;28;20119;-40
2021/07/27 13:58:50;;;;;;;8.18;2.45;;;;;;;;;;5074716;28;20165;-40
2021/07/27 14:01:15;;;;;;;7.97;2.40;;;;;;;;;;5074490;28;20016;-40
2021/07/27 14:03:41;;;;;;;7.00;2.80;;;;;;;;;;5074658;28;20033;-40
2021/07/27 14:06:06;;;;;;;11.38;2.85;;;;;;;;;;5074216;28;20025;-40
2021/07/27 14:08:32;;;;;;;9.73;2.05;;;;;;;;;;5074241;28;20041;-41
2021/07/27 14:10:57;;;;;;;14.70;2.90;;;;;;;;;;5074448;28;20051;-40
2021/07/27 14:13:22;;;;;;;16.45;3.08;;;;;;;;;;5074356;28;20119;-41
2021/07/27 14:15:48;;;;;;;8.95;2.42;;;;;;;;;;5074233;28;20463;-41
2021/07/27 14:18:13;;;;;;;9.23;3.25;;;;;;;;;;5073851;28;20037;-40
2021/07/27 14:20:39;;;;;;;7.75;1.95;;;;;;;;;;5074372;28;20028;-40
2021/07/27 14:23:04;;;;;;;6.85;2.63;;;;;;;;;;5073954;28;20032;-40
2021/07/27 14:25:29;;;;;;;21.25;2.97;;;;;;;;;;5073970;28;20040;-41
2021/07/27 14:27:56;;;;;;;13.27;2.80;;;;;;;;;;5073415;28;20433;-40
2021/07/27 14:30:22;;;;;;;14.57;3.25;;;;;;;;;;5073800;28;20537;-40
2021/07/27 14:32:47;;;;;;;9.43;3.38;;;;;;;;;;5073702;28;20028;-41
2021/07/27 14:35:12;;;;;;;11.43;2.88;;;;;;;;;;5073773;28;20021;-40
2021/07/27 14:37:38;;;;;;;4.35;2.22;;;;;;;;;;5073679;28;20119;-40
2021/07/27 14:40:04;;;;;;;10.43;3.22;;;;;;;;;;5072305;28;20017;-40
2021/07/27 14:42:29;;;;;;;14.60;2.72;;;;;;;;;;5073666;28;20031;-41
2021/07/27 14:44:55;;;;;;;12.95;2.25;;;;;;;;;;5073338;28;20013;-42
2021/07/27 14:47:21;;;;;;;10.35;2.75;;;;;;;;;;5073825;28;20035;-40
2021/07/27 14:49:46;;;;;;;13.52;2.97;;;;;;;;;;5073146;28;20012;-41
2021/07/27 14:52:12;;;;;;;9.80;2.53;;;;;;;;;;5071913;28;20056;-41